Time;durP1;ratioP1;P1;durP2;ratioP2;P2;SDS_P1;SDS_P2;PMS_P1;PMS_P2;Temp;Humidity;BMP_temperature;BMP_pressure;BME280_temperature;BME280_humidity;BME280_pressure;Samples;Min_cycle;Max_cycle;Signal;HPM_P1;HPM_P2
2022/07/29 00:01:07;;;;;;;3.50;1.80;;;20.90;95.70;;;;;;5093379;28;20020;-77
2022/07/29 00:03:33;;;;;;;4.15;2.08;;;20.80;95.90;;;;;;5093563;28;20097;-76
2022/07/29 00:05:58;;;;;;;7.30;2.20;;;20.80;96.30;;;;;;5091982;28;20068;-76
2022/07/29 00:08:24;;;;;;;3.27;1.67;;;20.70;96.70;;;;;;5092101;28;20043;-76
2022/07/29 00:10:49;;;;;;;4.57;2.10;;;20.60;96.90;;;;;;5093258;28;20036;-76
2022/07/29 00:13:15;;;;;;;3.80;2.13;;;20.60;97.20;;;;;;5091604;28;20044;-76
2022/07/29 00:15:41;;;;;;;3.70;1.70;;;20.50;97.50;;;;;;5091341;28;20368;-76
2022/07/29 00:18:07;;;;;;;3.73;1.90;;;20.30;98.10;;;;;;5093357;28;20375;-75
2022/07/29 00:20:32;;;;;;;3.60;1.87;;;20.30;98.10;;;;;;5091781;28;20081;-75
2022/07/29 00:22:58;;;;;;;6.93;3.33;;;20.30;98.40;;;;;;5093256;28;20024;-75
2022/07/29 00:25:24;;;;;;;3.60;1.90;;;20.30;97.40;;;;;;5092913;28;20028;-76
2022/07/29 00:27:49;;;;;;;2.53;1.60;;;20.30;96.90;;;;;;5093161;28;20051;-77
2022/07/29 00:30:15;;;;;;;5.67;1.97;;;20.50;96.70;;;;;;5091518;28;20335;-78
2022/07/29 00:32:41;;;;;;;3.90;1.80;;;20.50;96.60;;;;;;5092788;28;20040;-76
2022/07/29 00:37:51;;;;;;;3.22;1.80;;;20.70;96.40;;;;;;5092819;28;20469;-75
2022/07/29 00:40:17;;;;;;;3.67;1.67;;;20.70;96.70;;;;;;5092801;28;20082;-76
2022/07/29 00:42:43;;;;;;;3.63;1.70;;;20.60;96.80;;;;;;5091638;28;20285;-75
2022/07/29 00:45:09;;;;;;;3.38;1.70;;;20.60;96.90;;;;;;5092659;28;20026;-76
2022/07/29 00:47:35;;;;;;;3.72;1.92;;;20.50;97.10;;;;;;5092713;28;20039;-77
2022/07/29 00:50:00;;;;;;;3.60;1.90;;;20.60;96.60;;;;;;5092929;28;20423;-77
2022/07/29 00:52:26;;;;;;;4.77;1.80;;;20.50;96.70;;;;;;5092706;28;20024;-76
2022/07/29 00:54:52;;;;;;;7.40;2.15;;;20.60;96.50;;;;;;5090992;28;20109;-75
2022/07/29 00:57:18;;;;;;;4.17;1.60;;;20.60;96.40;;;;;;5092380;28;20020;-75
2022/07/29 00:59:43;;;;;;;4.70;2.00;;;20.70;96.50;;;;;;5091140;28;20020;-75
2022/07/29 01:02:09;;;;;;;5.07;1.67;;;20.60;96.60;;;;;;5092288;28;20020;-76
2022/07/29 01:04:35;;;;;;;3.50;1.80;;;20.60;96.50;;;;;;5092809;28;20085;-76
2022/07/29 01:07:02;;;;;;;4.10;2.23;;;20.60;96.40;;;;;;5090895;28;20066;-75
2022/07/29 01:09:28;;;;;;;3.90;1.60;;;20.60;97.70;;;;;;5092595;28;20039;-75
2022/07/29 01:11:54;;;;;;;4.57;1.80;;;20.60;96.60;;;;;;5092141;28;20028;-76
2022/07/29 01:14:22;;;;;;;5.28;1.77;;;20.50;96.50;;;;;;5092302;28;20486;-76
2022/07/29 01:17:02;;;;;;;3.58;1.75;;;20.50;96.60;;;;;;5090756;28;20016;-75
2022/07/29 01:19:41;;;;;;;4.72;2.00;;;20.60;96.20;;;;;;5092796;28;20020;-77
2022/07/29 01:22:29;;;;;;;4.28;1.88;;;20.70;96.30;;;;;;5092040;28;20024;-75
2022/07/29 01:25:26;;;;;;;4.22;1.88;;;20.70;96.40;;;;;;5091788;28;20390;-76
2022/07/29 01:28:26;;;;;;;4.57;2.17;;;20.70;96.50;;;;;;5090604;28;20115;-75
2022/07/29 01:30:53;;;;;;;4.50;1.92;;;20.70;96.80;;;;;;5091637;28;20024;-75
2022/07/29 01:36:16;;;;;;;4.55;2.00;;;20.70;97.00;;;;;;5091697;28;20078;-75
2022/07/29 01:38:47;;;;;;;4.15;2.00;;;20.60;96.80;;;;;;5091759;28;20028;-76
2022/07/29 01:41:17;;;;;;;4.80;2.35;;;20.60;96.90;;;;;;5090318;28;20028;-76
2022/07/29 01:43:57;;;;;;;5.32;2.33;;;20.60;96.90;;;;;;5090111;28;20409;-76
2022/07/29 01:46:34;;;;;;;2.28;1.60;;;20.50;96.70;;;;;;5091646;28;20035;-76
2022/07/29 01:49:13;;;;;;;4.13;1.85;;;20.50;96.60;;;;;;5091927;28;20354;-76
2022/07/29 01:51:52;;;;;;;4.68;1.80;;;20.50;96.60;;;;;;5091311;28;20487;-76
2022/07/29 01:54:23;;;;;;;3.08;1.70;;;20.50;96.60;;;;;;5091221;28;20042;-76
2022/07/29 01:56:51;;;;;;;3.53;1.67;;;20.40;96.60;;;;;;5091073;28;20099;-76
2022/07/29 01:59:18;;;;;;;3.03;1.80;;;20.40;96.70;;;;;;5091162;28;20031;-76
2022/07/29 02:01:46;;;;;;;4.38;1.55;;;20.40;96.60;;;;;;5091343;28;20024;-76
2022/07/29 02:04:14;;;;;;;3.42;1.67;;;20.40;96.60;;;;;;5091404;28;20048;-76
2022/07/29 02:06:42;;;;;;;3.00;1.65;;;20.40;96.50;;;;;;5091057;28;20031;-76
2022/07/29 02:09:10;;;;;;;3.38;1.80;;;20.30;96.60;;;;;;5091398;28;20498;-76
2022/07/29 02:11:37;;;;;;;3.42;1.65;;;20.30;96.60;;;;;;5091400;28;20062;-75
2022/07/29 02:14:04;;;;;;;4.05;1.90;;;20.30;96.70;;;;;;5091256;28;20075;-76
2022/07/29 02:16:31;;;;;;;4.05;1.58;;;20.30;96.70;;;;;;5090997;28;20020;-76
2022/07/29 02:19:00;;;;;;;4.00;1.73;;;20.30;96.90;;;;;;5091007;28;20053;-76
2022/07/29 02:21:27;;;;;;;4.68;2.10;;;20.30;96.90;;;;;;5090839;28;20028;-77
2022/07/29 02:23:55;;;;;;;2.33;1.50;;;20.30;96.70;;;;;;5089541;28;20443;-76
2022/07/29 02:26:23;;;;;;;5.03;1.85;;;20.20;96.70;;;;;;5090777;28;20031;-75
2022/07/29 02:28:52;;;;;;;3.03;1.70;;;20.10;96.70;;;;;;5098777;28;20428;-75
2022/07/29 02:31:21;;;;;;;4.95;1.92;;;20.20;96.70;;;;;;5091935;28;20119;-76
2022/07/29 02:33:48;;;;;;;3.75;1.52;;;20.20;96.80;;;;;;5091018;28;20040;-75
2022/07/29 02:36:14;;;;;;;4.20;1.85;;;20.20;96.80;;;;;;5090954;28;20483;-76
2022/07/29 02:38:53;;;;;;;;;;;20.10;96.70;;;;;;5091106;28;20487;-76
2022/07/29 02:41:18;;;;;;;;;;;20.10;97.00;;;;;;5106722;28;19912;-75
2022/07/29 02:43:48;;;;;;;3.22;1.40;;;20.00;96.60;;;;;;5106398;28;19912;-75
2022/07/29 02:46:20;;;;;;;5.47;1.95;;;20.00;96.40;;;;;;5090634;28;20071;-75
2022/07/29 02:49:09;;;;;;;3.17;1.60;;;20.00;96.70;;;;;;5106166;28;20038;-76
2022/07/29 02:51:50;;;;;;;2.78;1.58;;;20.10;96.50;;;;;;5106109;28;20030;-76
2022/07/29 02:54:43;;;;;;;5.82;1.83;;;20.10;96.60;;;;;;5090292;28;20053;-76
2022/07/29 02:57:18;;;;;;;2.05;1.40;;;20.10;96.50;;;;;;5089996;28;20032;-76
2022/07/29 02:59:47;;;;;;;4.18;1.60;;;20.10;96.50;;;;;;5090304;28;20148;-75
2022/07/29 03:02:14;;;;;;;3.60;1.90;;;20.10;96.50;;;;;;5105977;28;20028;-76
2022/07/29 03:04:42;;;;;;;3.17;1.67;;;20.10;96.60;;;;;;5090882;28;20032;-76
2022/07/29 03:07:10;;;;;;;3.45;1.60;;;20.10;97.50;;;;;;5090361;28;20085;-76
2022/07/29 03:09:36;;;;;;;2.60;1.40;;;20.00;97.90;;;;;;5090874;28;20040;-76
2022/07/29 03:12:03;;;;;;;2.88;1.48;;;20.00;98.60;;;;;;5090469;28;20414;-76
2022/07/29 03:14:31;;;;;;;4.28;1.60;;;19.90;98.50;;;;;;5090656;28;20028;-76
2022/07/29 03:16:58;;;;;;;4.45;1.90;;;19.90;98.40;;;;;;5090308;28;20013;-76
2022/07/29 03:19:24;;;;;;;6.40;1.65;;;19.80;99.80;;;;;;5106062;28;20036;-75
2022/07/29 03:21:49;;;;;;;3.47;1.50;;;19.60;98.90;;;;;;5090299;28;20035;-76
2022/07/29 03:24:33;;;;;;;3.50;1.90;;;19.80;99.00;;;;;;5090562;28;20047;-76
2022/07/29 03:26:59;;;;;;;4.45;1.95;;;19.90;99.20;;;;;;5105946;28;20428;-76
2022/07/29 03:29:25;;;;;;;2.90;1.83;;;19.90;99.00;;;;;;5090387;28;20043;-76
2022/07/29 03:31:51;;;;;;;4.22;2.30;;;19.90;99.30;;;;;;5090032;28;20032;-76
2022/07/29 03:34:17;;;;;;;5.93;1.80;;;19.90;99.90;;;;;;5090468;28;20028;-76
2022/07/29 03:36:42;;;;;;;3.03;1.80;;;19.90;99.70;;;;;;5090235;28;20020;-76
2022/07/29 03:39:10;;;;;;;3.43;1.80;;;20.00;98.80;;;;;;5090527;28;20028;-76
2022/07/29 03:41:38;;;;;;;3.97;1.98;;;20.00;98.40;;;;;;5090152;28;20430;-76
2022/07/29 03:44:06;;;;;;;2.92;1.60;;;20.10;99.80;;;;;;5105272;28;20032;-76
2022/07/29 03:46:33;;;;;;;4.22;1.75;;;20.10;99.00;;;;;;5089860;28;20028;-76
2022/07/29 03:49:02;;;;;;;2.88;1.75;;;20.10;98.60;;;;;;5091069;28;20040;-76
2022/07/29 03:51:28;;;;;;;4.68;1.70;;;20.20;98.70;;;;;;5091500;28;20032;-76
2022/07/29 03:53:54;;;;;;;5.18;1.90;;;20.30;99.90;;;;;;5108738;28;20048;-76
2022/07/29 03:56:23;;;;;;;3.97;1.87;;;20.30;99.00;;;;;;5093510;28;20133;-76
2022/07/29 03:58:52;;;;;;;2.75;1.63;;;20.30;99.70;;;;;;5093634;28;20111;-75
2022/07/29 04:01:19;;;;;;;3.58;1.80;;;20.30;99.90;;;;;;5093421;28;20107;-76
2022/07/29 04:03:45;;;;;;;4.38;1.50;;;20.30;97.40;;;;;;5093536;28;20032;-76
2022/07/29 04:06:11;;;;;;;2.92;1.40;;;20.50;96.90;;;;;;5109054;28;20179;-76
2022/07/29 04:08:38;;;;;;;2.58;1.30;;;20.60;97.00;;;;;;5093573;28;20058;-76
2022/07/29 04:11:04;;;;;;;5.28;1.83;;;20.60;96.90;;;;;;5093142;28;20409;-75
2022/07/29 04:13:31;;;;;;;;;;;20.60;96.60;;;;;;5093580;28;20039;-77
2022/07/29 04:15:56;;;;;;;3.53;1.48;;;20.70;96.10;;;;;;5093201;28;19926;-76
2022/07/29 04:18:22;;;;;;;3.80;1.37;;;20.80;96.10;;;;;;5093564;28;20040;-76
2022/07/29 04:20:48;;;;;;;3.50;1.55;;;20.80;95.80;;;;;;5093750;28;20024;-77
2022/07/29 04:23:14;;;;;;;3.65;1.52;;;20.80;96.00;;;;;;5109051;28;20387;-76
2022/07/29 04:25:40;;;;;;;3.70;1.57;;;20.80;95.90;;;;;;5093408;28;20475;-76
2022/07/29 04:28:07;;;;;;;;;;;20.90;96.00;;;;;;5109046;28;20119;-75
2022/07/29 04:30:34;;;;;;;2.17;1.40;;;20.90;96.20;;;;;;5091672;28;19904;-76
2022/07/29 04:33:02;;;;;;;6.57;1.70;;;20.90;96.50;;;;;;5093144;28;20495;-76
2022/07/29 04:35:33;;;;;;;3.88;1.58;;;21.00;96.50;;;;;;5092991;28;20109;-76
2022/07/29 04:38:00;;;;;;;4.82;1.55;;;20.90;96.70;;;;;;5108586;28;20032;-76
2022/07/29 04:40:25;;;;;;;5.38;1.70;;;20.90;96.90;;;;;;5092846;28;20035;-76
2022/07/29 04:42:51;;;;;;;3.83;2.20;;;21.00;97.30;;;;;;5092758;28;20035;-76
2022/07/29 04:45:16;;;;;;;4.03;1.53;;;21.00;97.60;;;;;;5108402;28;20039;-75
2022/07/29 04:47:42;;;;;;;3.27;1.93;;;21.00;97.40;;;;;;5092711;28;20032;-76
2022/07/29 04:50:09;;;;;;;4.93;2.63;;;21.10;97.80;;;;;;5092802;28;20028;-76
2022/07/29 04:52:35;;;;;;;3.92;2.10;;;21.10;97.20;;;;;;5092726;28;20063;-77
2022/07/29 04:55:01;;;;;;;3.57;1.80;;;21.10;97.50;;;;;;5092731;28;20063;-77
2022/07/29 04:57:26;;;;;;;6.80;2.22;;;21.20;96.60;;;;;;5092924;28;20471;-77
2022/07/29 04:59:52;;;;;;;3.77;1.97;;;21.30;96.60;;;;;;5092209;28;20111;-75
2022/07/29 05:02:18;;;;;;;5.53;2.23;;;21.30;96.20;;;;;;5091939;28;20476;-75
2022/07/29 05:04:43;;;;;;;5.80;2.20;;;21.20;95.80;;;;;;5092053;28;20368;-76
2022/07/29 05:07:09;;;;;;;9.20;2.47;;;21.20;96.30;;;;;;5091932;28;20471;-76
2022/07/29 05:09:35;;;;;;;5.30;2.07;;;21.30;96.20;;;;;;5092423;28;20032;-76
2022/07/29 05:12:00;;;;;;;8.13;2.47;;;21.40;96.00;;;;;;5107866;28;20016;-76
2022/07/29 05:14:26;;;;;;;6.37;2.27;;;21.30;96.00;;;;;;5090724;28;20081;-76
2022/07/29 05:16:52;;;;;;;6.53;2.50;;;21.30;96.40;;;;;;5107723;28;20028;-76
2022/07/29 05:19:18;;;;;;;4.70;2.70;;;21.30;96.70;;;;;;5092358;28;20071;-75
2022/07/29 05:21:44;;;;;;;8.30;3.63;;;21.30;96.70;;;;;;5092018;28;20062;-77
2022/07/29 05:24:11;;;;;;;5.55;2.53;;;21.30;96.90;;;;;;5092144;28;20033;-76
2022/07/29 05:26:36;;;;;;;5.82;2.17;;;21.40;96.10;;;;;;5107351;28;20036;-76
2022/07/29 05:29:02;;;;;;;4.47;1.87;;;21.50;95.90;;;;;;5107408;28;20451;-77
2022/07/29 05:31:28;;;;;;;5.72;2.30;;;21.50;96.00;;;;;;5091625;28;20024;-76
2022/07/29 05:33:53;;;;;;;4.93;1.83;;;21.50;95.90;;;;;;5091819;28;20085;-77
2022/07/29 05:36:19;;;;;;;5.23;2.27;;;21.60;95.60;;;;;;5107541;28;20064;-76
2022/07/29 05:38:45;;;;;;;6.33;2.10;;;21.60;95.40;;;;;;5091923;28;20422;-76
2022/07/29 05:41:10;;;;;;;4.70;1.90;;;21.60;95.50;;;;;;5091974;28;20020;-76
2022/07/29 05:43:36;;;;;;;3.23;1.80;;;21.60;95.40;;;;;;5091747;28;20374;-76
2022/07/29 05:46:01;;;;;;;4.10;1.50;;;21.70;95.10;;;;;;5092053;28;20066;-76
2022/07/29 05:48:27;;;;;;;5.40;1.90;;;21.80;95.10;;;;;;5091723;28;20036;-76
2022/07/29 05:50:53;;;;;;;3.27;1.60;;;21.90;95.20;;;;;;5091656;28;20038;-76
2022/07/29 05:53:19;;;;;;;3.92;1.75;;;21.90;95.20;;;;;;5091060;28;20070;-77
2022/07/29 05:55:44;;;;;;;3.97;1.70;;;21.90;94.80;;;;;;5091155;28;20028;-77
2022/07/29 05:58:10;;;;;;;7.43;1.73;;;22.00;95.30;;;;;;5106819;28;20126;-76
2022/07/29 06:00:35;;;;;;;4.07;1.60;;;22.00;94.70;;;;;;5090982;28;20145;-76
2022/07/29 06:03:01;;;;;;;2.77;1.50;;;22.10;94.10;;;;;;5091181;28;20024;-76
2022/07/29 06:05:27;;;;;;;1.90;1.27;;;22.10;94.20;;;;;;5091440;28;20020;-76
2022/07/29 06:07:53;;;;;;;5.53;1.77;;;22.20;94.10;;;;;;5090930;28;20039;-77
2022/07/29 06:10:18;;;;;;;3.57;1.70;;;22.30;94.50;;;;;;5106357;28;20525;-76
2022/07/29 06:12:44;;;;;;;4.90;1.40;;;22.40;94.20;;;;;;5091183;28;20296;-76
2022/07/29 06:15:10;;;;;;;6.30;1.67;;;22.50;92.80;;;;;;5090529;28;20043;-76
2022/07/29 06:17:35;;;;;;;2.60;1.30;;;22.60;93.20;;;;;;5091275;28;20020;-76
2022/07/29 06:20:02;;;;;;;5.87;1.80;;;22.70;92.50;;;;;;5091010;28;20070;-75
2022/07/29 06:22:28;;;;;;;;;;;22.80;92.60;;;;;;5091241;28;20032;-76
2022/07/29 06:24:54;;;;;;;4.30;1.70;;;22.90;92.10;;;;;;5106496;28;19915;-75
2022/07/29 06:27:19;;;;;;;2.40;1.50;;;22.90;91.70;;;;;;5090777;28;20024;-77
2022/07/29 06:29:45;;;;;;;4.03;1.60;;;23.00;91.80;;;;;;5090751;28;20459;-77
2022/07/29 06:32:11;;;;;;;3.27;1.60;;;23.10;91.30;;;;;;5090532;28;20459;-77
2022/07/29 06:34:36;;;;;;;3.30;1.70;;;23.10;92.10;;;;;;5105866;28;20093;-76
2022/07/29 06:37:08;;;;;;;3.93;1.73;;;23.20;92.10;;;;;;5106213;28;20031;-76
2022/07/29 06:39:37;;;;;;;3.72;1.75;;;23.30;92.10;;;;;;5090222;28;20063;-76
2022/07/29 06:42:04;;;;;;;3.03;1.73;;;23.50;92.50;;;;;;5090796;28;20107;-77
2022/07/29 06:44:30;;;;;;;4.40;1.73;;;23.60;92.50;;;;;;5091029;28;20495;-77
2022/07/29 06:46:56;;;;;;;8.68;2.35;;;23.80;91.50;;;;;;5072328;28;20414;-77
2022/07/29 06:49:23;;;;;;;4.67;1.80;;;23.90;91.70;;;;;;5090689;28;20043;-76
2022/07/29 06:51:48;;;;;;;;;;;23.90;91.00;;;;;;5106131;28;20115;-76
2022/07/29 06:54:14;;;;;;;5.25;1.80;;;24.00;90.80;;;;;;5089913;28;20007;-67
2022/07/29 06:56:41;;;;;;;4.67;1.70;;;24.00;90.90;;;;;;5107799;28;20027;-67
2022/07/29 06:59:11;;;;;;;4.57;1.88;;;24.00;91.00;;;;;;5101484;28;20028;-67
2022/07/29 07:01:37;;;;;;;5.35;2.10;;;24.20;90.90;;;;;;5096101;28;20034;-67
2022/07/29 07:04:03;;;;;;;;;;;24.20;90.90;;;;;;5106789;28;20393;-67
2022/07/29 07:06:29;;;;;;;5.38;1.88;;;24.30;90.60;;;;;;5109882;28;19942;-67
2022/07/29 07:08:54;;;;;;;5.20;1.80;;;24.40;90.50;;;;;;5091848;28;20509;-66
2022/07/29 07:11:20;;;;;;;4.40;1.87;;;24.50;90.20;;;;;;5109982;28;20031;-66
2022/07/29 07:13:46;;;;;;;11.07;2.13;;;24.60;90.40;;;;;;5104507;28;20042;-66
2022/07/29 07:16:11;;;;;;;6.77;2.17;;;24.70;90.10;;;;;;5098536;28;20291;-67
2022/07/29 07:18:37;;;;;;;4.73;2.00;;;24.80;89.70;;;;;;5091456;28;20064;-68
2022/07/29 07:21:04;;;;;;;8.30;2.43;;;24.80;90.10;;;;;;5116491;28;20031;-67
2022/07/29 07:23:30;;;;;;;5.00;1.83;;;24.80;90.00;;;;;;5105457;28;20028;-66
2022/07/29 07:25:56;;;;;;;3.53;1.90;;;24.70;90.00;;;;;;5097352;28;20040;-66
2022/07/29 07:28:21;;;;;;;4.97;1.90;;;24.80;90.60;;;;;;5101381;28;20067;-67
2022/07/29 07:30:47;;;;;;;4.70;2.03;;;24.90;91.00;;;;;;5113557;28;20426;-67
2022/07/29 07:33:13;;;;;;;4.13;2.30;;;25.10;90.60;;;;;;5113654;28;20036;-68
2022/07/29 07:35:39;;;;;;;6.72;2.28;;;25.20;90.80;;;;;;5095631;28;20028;-68
2022/07/29 07:38:05;;;;;;;4.27;2.00;;;25.40;90.70;;;;;;5113157;28;20032;-67
2022/07/29 07:40:31;;;;;;;4.47;2.10;;;25.40;90.40;;;;;;5113725;28;20043;-67
2022/07/29 07:42:57;;;;;;;5.00;2.33;;;25.40;90.40;;;;;;5113809;28;20035;-67
2022/07/29 07:45:22;;;;;;;8.97;2.23;;;25.50;90.30;;;;;;5113249;28;20856;-67
2022/07/29 07:47:49;;;;;;;4.05;2.30;;;25.50;90.40;;;;;;5112749;28;20437;-67
2022/07/29 07:50:15;;;;;;;3.23;2.10;;;25.70;90.30;;;;;;5113276;28;20051;-67
2022/07/29 07:52:49;;;;;;;5.03;2.38;;;25.80;89.70;;;;;;5110216;28;20118;-68
2022/07/29 07:55:15;;;;;;;4.18;2.45;;;25.90;90.20;;;;;;5112553;28;20117;-67
2022/07/29 07:57:41;;;;;;;5.88;2.40;;;26.00;89.90;;;;;;5113145;28;20027;-67
2022/07/29 08:00:07;;;;;;;6.33;2.63;;;25.90;89.90;;;;;;5113385;28;20104;-67
2022/07/29 08:02:32;;;;;;;4.30;2.20;;;25.90;90.30;;;;;;5113333;28;20031;-66
2022/07/29 08:04:59;;;;;;;4.50;2.50;;;26.10;90.60;;;;;;5113209;28;20109;-67
2022/07/29 08:07:25;;;;;;;3.75;2.10;;;26.30;90.00;;;;;;5113475;28;20037;-67
2022/07/29 08:09:50;;;;;;;6.80;2.27;;;26.40;89.00;;;;;;5112561;28;20334;-68
2022/07/29 08:12:16;;;;;;;4.43;2.40;;;26.60;89.10;;;;;;5112187;28;20507;-67
2022/07/29 08:14:41;;;;;;;4.27;2.40;;;26.80;88.30;;;;;;5112221;28;20570;-67
2022/07/29 08:17:07;;;;;;;5.57;2.43;;;26.90;88.10;;;;;;5115057;27;20024;-66
2022/07/29 08:19:33;;;;;;;7.47;4.13;;;27.00;87.30;;;;;;5111984;28;20126;-67
2022/07/29 08:21:58;;;;;;;5.63;2.60;;;27.20;87.20;;;;;;5109695;28;20084;-67
2022/07/29 08:27:08;;;;;;;4.78;2.20;;;27.40;85.20;;;;;;5112869;27;20039;-67
2022/07/29 08:29:34;;;;;;;5.18;2.20;;;27.50;85.50;;;;;;5111715;27;20047;-66
2022/07/29 08:32:00;;;;;;;4.87;2.13;;;27.60;85.20;;;;;;5113742;27;20061;-66
2022/07/29 08:34:25;;;;;;;5.70;2.70;;;27.50;85.10;;;;;;5108643;27;20032;-67
2022/07/29 08:36:51;;;;;;;7.90;2.63;;;27.50;84.70;;;;;;5111731;27;20501;-68
2022/07/29 08:39:17;;;;;;;7.45;2.60;;;27.60;84.60;;;;;;5111798;28;20276;-67
2022/07/29 08:41:43;;;;;;;3.70;2.43;;;27.70;84.10;;;;;;5112688;28;20058;-67
2022/07/29 08:44:09;;;;;;;5.33;2.57;;;27.80;83.90;;;;;;5111704;28;20047;-67
2022/07/29 08:46:38;;;;;;;6.13;2.30;;;28.00;84.00;;;;;;5111650;28;20215;-68
2022/07/29 08:49:04;;;;;;;7.88;4.63;;;28.20;84.10;;;;;;5108460;28;20427;-67
2022/07/29 08:51:33;;;;;;;5.13;2.40;;;28.40;82.90;;;;;;5108188;28;20070;-67
2022/07/29 08:53:59;;;;;;;4.30;2.85;;;28.30;83.20;;;;;;5105952;28;20104;-70
2022/07/29 08:56:25;;;;;;;5.00;2.55;;;28.30;82.10;;;;;;5109205;27;20095;-67
2022/07/29 08:58:51;;;;;;;5.20;2.72;;;28.00;82.50;;;;;;5113212;27;20122;-68
2022/07/29 09:01:22;;;;;;;6.53;2.88;;;27.90;83.00;;;;;;5108207;27;20031;-69
2022/07/29 09:03:48;;;;;;;7.05;2.80;;;27.90;82.70;;;;;;5110764;28;20410;-68
2022/07/29 09:06:16;;;;;;;10.32;2.75;;;28.00;83.20;;;;;;5110561;28;20390;-68
2022/07/29 09:08:42;;;;;;;5.55;2.88;;;28.20;82.40;;;;;;5111959;28;20027;-67
2022/07/29 09:11:08;;;;;;;5.77;2.10;;;28.20;82.00;;;;;;5111613;28;20446;-67
2022/07/29 09:13:34;;;;;;;7.07;2.92;;;28.10;81.70;;;;;;5108775;28;20345;-68
2022/07/29 09:16:00;;;;;;;6.57;2.83;;;28.10;82.00;;;;;;5108045;28;20069;-67
2022/07/29 09:18:45;;;;;;;4.30;2.40;;;27.70;81.80;;;;;;5110788;28;20036;-68
2022/07/29 09:24:01;;;;;;;7.50;2.55;;;27.10;84.30;;;;;;5111956;28;20046;-67
2022/07/29 09:26:34;;;;;;;;;;;26.90;84.00;;;;;;5111247;28;20088;-67
2022/07/29 09:29:01;;;;;;;6.72;2.70;;;27.00;84.40;;;;;;5109759;28;19912;-68
2022/07/29 09:31:38;;;;;;;7.13;2.65;;;27.10;84.80;;;;;;5111330;28;20382;-68
2022/07/29 09:34:05;;;;;;;3.08;2.30;;;27.20;84.00;;;;;;5110135;27;20545;-68
2022/07/29 09:36:37;;;;;;;5.32;3.10;;;27.30;83.80;;;;;;5109949;28;20106;-68
2022/07/29 09:39:03;;;;;;;4.55;2.88;;;27.60;83.20;;;;;;5102739;28;20036;-68
2022/07/29 09:41:29;;;;;;;4.53;2.30;;;28.00;82.20;;;;;;5125265;27;20024;-67
2022/07/29 09:43:55;;;;;;;;;;;28.40;81.40;;;;;;5112571;28;20459;-67
2022/07/29 09:46:20;;;;;;;4.45;2.78;;;28.80;82.00;;;;;;5111366;28;19907;-68
2022/07/29 09:49:10;;;;;;;4.97;2.47;;;29.30;79.70;;;;;;5128876;27;20084;-67
2022/07/29 09:51:35;;;;;;;5.32;2.80;;;29.50;78.90;;;;;;5122878;27;20623;-67
2022/07/29 09:54:03;;;;;;;4.35;2.60;;;29.60;77.90;;;;;;5110667;27;20143;-67
2022/07/29 09:56:42;;;;;;;5.38;2.72;;;29.50;77.80;;;;;;5109087;27;20030;-67
2022/07/29 09:59:08;;;;;;;3.65;2.35;;;29.40;77.60;;;;;;5105110;28;20063;-67
2022/07/29 10:01:35;;;;;;;5.13;2.33;;;29.00;79.50;;;;;;5107636;28;20058;-68
2022/07/29 10:04:01;;;;;;;3.75;2.15;;;28.70;79.70;;;;;;5106008;28;20039;-68
2022/07/29 10:06:27;;;;;;;8.38;2.95;;;28.30;80.20;;;;;;5107362;28;20031;-66
2022/07/29 10:08:53;;;;;;;3.87;2.37;;;27.90;81.30;;;;;;5110552;28;20486;-66
2022/07/29 10:11:19;;;;;;;3.90;2.70;;;27.30;82.10;;;;;;5108856;28;20813;-67
2022/07/29 10:13:46;;;;;;;4.30;2.97;;;27.00;83.00;;;;;;5108842;28;20048;-68
2022/07/29 10:16:14;;;;;;;7.10;2.85;;;27.20;82.40;;;;;;5110433;28;20106;-64
2022/07/29 10:18:41;;;;;;;11.60;3.75;;;27.40;82.30;;;;;;5110751;28;20084;-68
2022/07/29 10:21:07;;;;;;;6.10;2.75;;;27.50;81.40;;;;;;5110686;28;20059;-67
2022/07/29 10:23:34;;;;;;;4.72;3.05;;;27.70;81.80;;;;;;5107389;28;20063;-68
2022/07/29 10:26:00;;;;;;;8.10;2.97;;;27.80;81.40;;;;;;5106674;28;20372;-67
2022/07/29 10:28:25;;;;;;;15.32;7.22;;;27.90;81.30;;;;;;5093629;28;20032;-67
2022/07/29 10:30:58;;;;;;;6.05;3.40;;;28.00;80.60;;;;;;5095169;28;20419;-66
2022/07/29 10:34:07;;;;;;;6.00;2.80;;;28.30;81.50;;;;;;5109794;28;20103;-66
2022/07/29 10:36:52;;;;;;;4.25;2.65;;;28.70;79.70;;;;;;5110847;28;20383;-66
2022/07/29 10:39:48;;;;;;;6.25;3.08;;;29.00;78.90;;;;;;5110789;28;20065;-67
2022/07/29 10:42:39;;;;;;;4.05;2.50;;;29.70;78.20;;;;;;5109546;28;20342;-66
2022/07/29 10:45:05;;;;;;;6.53;3.10;;;30.30;77.50;;;;;;5123824;27;20483;-65
2022/07/29 10:47:31;;;;;;;6.63;3.00;;;30.50;76.10;;;;;;5107341;28;20024;-66
2022/07/29 10:50:02;;;;;;;5.10;2.80;;;30.10;76.50;;;;;;5109140;28;20028;-66
2022/07/29 10:52:52;;;;;;;6.10;2.90;;;29.70;76.90;;;;;;5105846;28;20403;-67
2022/07/29 10:55:36;;;;;;;5.35;2.75;;;29.20;78.10;;;;;;5104899;28;20862;-65
2022/07/29 10:58:23;;;;;;;4.78;2.90;;;28.90;78.50;;;;;;5110028;28;20024;-65
2022/07/29 11:00:54;;;;;;;3.63;2.60;;;28.60;79.40;;;;;;5104177;27;20084;-67
2022/07/29 11:03:46;;;;;;;5.75;2.83;;;28.70;80.00;;;;;;5110948;27;20164;-66
2022/07/29 11:06:13;;;;;;;5.28;2.42;;;29.40;79.10;;;;;;5107448;27;20031;-66
2022/07/29 11:08:39;;;;;;;5.60;2.90;;;30.10;77.90;;;;;;5113574;28;20023;-64
2022/07/29 11:11:19;;;;;;;6.05;2.90;;;30.70;76.50;;;;;;5110687;27;20027;-67
2022/07/29 11:13:47;;;;;;;6.60;2.97;;;31.30;75.00;;;;;;5112846;28;20071;-66
2022/07/29 11:16:13;;;;;;;5.18;3.00;;;31.50;75.40;;;;;;5090597;28;20024;-64
2022/07/29 11:19:10;;;;;;;5.43;2.80;;;31.40;72.60;;;;;;5113904;27;20034;-66
2022/07/29 11:21:37;;;;;;;6.18;3.22;;;30.80;73.30;;;;;;5115070;27;20030;-66
2022/07/29 11:24:14;;;;;;;5.65;2.78;;;30.30;74.70;;;;;;5112336;27;20488;-67
2022/07/29 11:26:40;;;;;;;6.40;3.00;;;30.20;75.30;;;;;;5111417;27;20035;-65
2022/07/29 11:29:22;;;;;;;5.68;3.00;;;30.10;75.50;;;;;;5119640;27;20482;-67
2022/07/29 11:31:53;;;;;;;6.78;2.90;;;30.00;75.80;;;;;;5109475;27;20028;-65
2022/07/29 11:34:32;;;;;;;5.85;3.20;;;29.70;76.70;;;;;;5110002;27;20074;-66
2022/07/29 11:37:10;;;;;;;8.32;3.17;;;29.50;76.00;;;;;;5113109;28;20401;-65
2022/07/29 11:40:03;;;;;;;6.80;3.15;;;29.70;76.20;;;;;;5111820;28;20207;-65
2022/07/29 11:42:31;;;;;;;5.43;3.30;;;29.70;75.00;;;;;;5109736;27;20043;-64
2022/07/29 11:45:16;;;;;;;5.85;3.20;;;29.20;75.60;;;;;;5111268;28;20031;-66
2022/07/29 11:47:50;;;;;;;5.38;3.25;;;28.80;76.10;;;;;;5118728;27;20376;-66
2022/07/29 11:50:34;;;;;;;5.75;3.00;;;28.50;77.30;;;;;;5122195;27;20363;-66
2022/07/29 11:53:02;;;;;;;6.30;2.95;;;28.40;78.10;;;;;;5110232;28;20035;-67
2022/07/29 11:55:28;;;;;;;5.43;3.28;;;28.40;77.50;;;;;;5112742;28;20116;-66
2022/07/29 11:57:58;;;;;;;7.53;2.92;;;28.30;77.30;;;;;;5111050;27;20443;-65
2022/07/29 12:00:45;;;;;;;5.63;3.70;;;28.20;77.60;;;;;;5110863;28;20554;-66
2022/07/29 12:03:13;;;;;;;5.60;3.70;;;28.10;77.50;;;;;;5111806;27;20032;-68
2022/07/29 12:05:44;;;;;;;4.45;2.97;;;28.10;77.90;;;;;;5093054;28;20114;-69
2022/07/29 12:08:18;;;;;;;5.05;2.85;;;28.10;78.50;;;;;;5114173;27;20032;-68
2022/07/29 12:10:46;;;;;;;4.70;2.92;;;28.20;79.10;;;;;;5113514;27;20210;-66
2022/07/29 12:13:13;;;;;;;7.85;3.20;;;28.40;78.60;;;;;;5113457;28;20032;-68
2022/07/29 12:15:39;;;;;;;4.72;3.10;;;28.80;77.50;;;;;;5112548;27;20024;-67
2022/07/29 12:18:18;;;;;;;6.68;2.90;;;29.30;77.20;;;;;;5115824;27;20031;-67
2022/07/29 12:20:44;;;;;;;3.95;2.80;;;29.60;77.20;;;;;;5113705;27;20024;-66
2022/07/29 12:23:12;;;;;;;5.40;2.97;;;30.00;76.00;;;;;;5120217;27;20126;-66
2022/07/29 12:25:38;;;;;;;3.95;2.72;;;30.30;75.10;;;;;;5112863;27;20331;-67
2022/07/29 12:28:10;;;;;;;7.15;3.75;;;30.50;74.90;;;;;;5112269;27;20116;-67
2022/07/29 12:30:48;;;;;;;5.97;2.95;;;30.70;74.00;;;;;;5092394;28;20024;-65
2022/07/29 12:33:26;;;;;;;3.90;2.45;;;30.70;72.50;;;;;;5107399;27;20170;-65
2022/07/29 12:35:58;;;;;;;6.78;3.45;;;30.60;73.60;;;;;;5108800;27;20099;-74
2022/07/29 12:38:25;;;;;;;5.75;2.80;;;30.40;73.80;;;;;;5105338;27;20039;-66
2022/07/29 12:40:53;;;;;;;5.90;3.00;;;30.00;73.90;;;;;;5102707;27;20024;-67
2022/07/29 12:43:20;;;;;;;4.43;2.88;;;29.70;75.30;;;;;;5107149;27;20031;-66
2022/07/29 12:45:53;;;;;;;5.60;3.08;;;29.40;76.90;;;;;;5107350;27;20042;-67
2022/07/29 12:48:36;;;;;;;5.70;2.90;;;29.10;77.50;;;;;;5103118;27;20052;-66
2022/07/29 12:51:03;;;;;;;5.38;2.58;;;28.70;77.90;;;;;;5105945;28;20027;-66
2022/07/29 12:53:29;;;;;;;5.43;3.00;;;28.50;78.80;;;;;;5103622;28;20059;-67
2022/07/29 12:55:56;;;;;;;7.72;2.83;;;28.30;79.70;;;;;;5107524;28;20395;-67
2022/07/29 12:58:32;;;;;;;4.32;2.80;;;28.00;80.10;;;;;;5108009;27;20045;-66
2022/07/29 13:01:08;;;;;;;4.95;3.03;;;27.90;80.50;;;;;;5105918;28;20024;-66
2022/07/29 13:03:58;;;;;;;7.30;3.10;;;27.70;81.10;;;;;;5108209;28;20110;-66
2022/07/29 13:06:40;;;;;;;5.15;2.88;;;27.50;81.70;;;;;;5105341;27;20142;-65
2022/07/29 13:09:10;;;;;;;6.90;2.85;;;27.40;82.90;;;;;;5107848;27;20036;-64